Time;durP1;ratioP1;P1;durP2;ratioP2;P2;SDS_P1;SDS_P2;PMS_P1;PMS_P2;Temp;Humidity;BMP_temperature;BMP_pressure;BME280_temperature;BME280_humidity;BME280_pressure;Samples;Min_cycle;Max_cycle;Signal;HPM_P1;HPM_P2
2022/07/19 00:12:58;;;;;;;9.65;9.05;;;18.00;99.90;;;;;;5013538;28;20314;-75
2022/07/19 00:15:24;;;;;;;10.13;9.50;;;17.90;99.90;;;;;;5031596;28;20265;-75
2022/07/19 00:17:50;;;;;;;12.23;11.50;;;17.90;99.90;;;;;;5032173;28;20262;-75
2022/07/19 00:20:18;;;;;;;10.85;10.15;;;17.90;99.90;;;;;;5033579;28;20294;-75
2022/07/19 00:22:44;;;;;;;12.13;11.30;;;17.70;99.90;;;;;;5032754;28;20229;-75
2022/07/19 00:25:10;;;;;;;9.23;8.55;;;17.70;99.90;;;;;;5016317;28;20207;-75
2022/07/19 00:27:36;;;;;;;9.43;8.82;;;17.70;99.90;;;;;;5012269;28;20184;-74
2022/07/19 00:30:04;;;;;;;12.98;12.30;;;17.80;99.90;;;;;;5012715;28;20179;-75
2022/07/19 00:32:30;;;;;;;9.15;8.63;;;17.70;99.90;;;;;;5012682;28;20283;-75
2022/07/19 00:34:56;;;;;;;12.52;11.50;;;17.70;99.90;;;;;;5026716;28;20270;-75
2022/07/19 00:37:22;;;;;;;10.10;9.27;;;17.70;99.90;;;;;;5032032;28;20182;-74
2022/07/19 00:39:47;;;;;;;10.30;9.80;;;17.80;99.90;;;;;;5032663;28;20183;-75
2022/07/19 00:42:14;;;;;;;11.63;10.98;;;17.80;99.90;;;;;;5032182;28;20178;-75
2022/07/19 00:44:40;;;;;;;12.20;11.35;;;17.70;99.90;;;;;;5020637;28;20198;-75
2022/07/19 00:47:07;;;;;;;11.10;10.50;;;17.70;99.90;;;;;;5011772;28;20605;-75
2022/07/19 00:49:32;;;;;;;9.95;9.15;;;17.60;99.90;;;;;;5012558;28;20258;-75
2022/07/19 00:52:00;;;;;;;12.90;11.98;;;17.60;99.90;;;;;;5012415;28;20254;-75
2022/07/19 00:54:27;;;;;;;14.83;14.03;;;17.60;99.90;;;;;;5021801;28;20179;-75
2022/07/19 00:56:54;;;;;;;15.63;14.82;;;17.60;99.90;;;;;;5031502;28;20292;-75
2022/07/19 00:59:21;;;;;;;16.23;15.23;;;17.70;99.90;;;;;;5014757;28;20698;-75
2022/07/19 01:01:47;;;;;;;16.23;15.32;;;17.60;99.90;;;;;;5032068;28;20233;-75
2022/07/19 01:04:13;;;;;;;12.45;11.65;;;17.40;99.90;;;;;;5006845;28;20203;-76
2022/07/19 01:06:40;;;;;;;10.10;9.57;;;17.40;99.90;;;;;;5012412;28;20190;-74
2022/07/19 01:09:06;;;;;;;18.67;17.57;;;17.20;99.90;;;;;;5011780;28;20184;-74
2022/07/19 01:11:32;;;;;;;33.67;31.97;;;17.10;99.90;;;;;;5011652;28;20234;-74
2022/07/19 01:13:57;;;;;;;26.77;25.08;;;17.00;99.90;;;;;;5017353;28;20207;-74
2022/07/19 01:16:23;;;;;;;21.30;19.73;;;17.10;99.90;;;;;;5031784;28;20190;-74
2022/07/19 01:18:52;;;;;;;32.30;30.53;;;17.10;99.90;;;;;;5013459;28;20183;-75
2022/07/19 01:21:22;;;;;;;25.83;24.37;;;17.00;99.90;;;;;;5014106;28;20186;-75
2022/07/19 01:23:49;;;;;;;16.27;15.07;;;16.90;99.90;;;;;;5022166;28;20290;-75
2022/07/19 01:26:15;;;;;;;18.07;16.97;;;16.80;99.90;;;;;;4994474;28;20186;-75
2022/07/19 01:28:42;;;;;;;21.60;20.40;;;16.80;99.90;;;;;;4993720;28;20191;-75
2022/07/19 01:31:08;;;;;;;19.43;18.30;;;16.80;99.90;;;;;;5013387;28;20754;-75
2022/07/19 01:33:45;;;;;;;26.63;24.80;;;16.70;99.90;;;;;;5019621;28;20199;-75
2022/07/19 01:36:11;;;;;;;192.00;181.67;;;16.60;99.90;;;;;;5031722;28;20182;-74
2022/07/19 01:38:38;;;;;;;263.47;249.03;;;16.60;99.90;;;;;;5030587;28;20185;-75
2022/07/19 01:41:05;;;;;;;190.50;179.97;;;16.70;99.90;;;;;;5013962;28;20187;-75
2022/07/19 01:43:31;;;;;;;146.40;138.57;;;16.70;99.90;;;;;;5007190;28;20216;-75
2022/07/19 01:45:58;;;;;;;64.37;60.90;;;16.70;99.90;;;;;;5011693;28;20274;-74
2022/07/19 01:48:24;;;;;;;248.30;234.83;;;16.60;99.90;;;;;;5010775;28;20188;-74
2022/07/19 01:50:50;;;;;;;216.40;204.77;;;16.50;99.90;;;;;;5011872;28;20207;-75
2022/07/19 01:53:16;;;;;;;224.83;212.70;;;16.40;99.90;;;;;;5015099;28;20187;-75
2022/07/19 01:55:42;;;;;;;171.60;162.70;;;16.40;99.90;;;;;;5031270;28;20186;-75
2022/07/19 01:58:07;;;;;;;223.90;212.30;;;16.40;99.90;;;;;;5030301;28;20261;-74
2022/07/19 02:00:33;;;;;;;225.80;214.13;;;16.40;99.90;;;;;;5031141;28;20221;-74
2022/07/19 02:02:59;;;;;;;258.27;244.70;;;16.40;99.90;;;;;;5029409;28;20289;-75
2022/07/19 02:05:25;;;;;;;221.37;210.00;;;16.50;99.90;;;;;;4993851;28;20318;-75
2022/07/19 02:07:51;;;;;;;195.50;185.37;;;16.40;99.90;;;;;;5010358;28;20210;-75
2022/07/19 02:10:17;;;;;;;253.17;240.23;;;16.30;99.90;;;;;;5010639;28;20199;-75
2022/07/19 02:12:43;;;;;;;197.33;187.13;;;16.30;99.90;;;;;;4993769;28;20207;-75
2022/07/19 02:15:09;;;;;;;97.60;92.57;;;16.20;99.90;;;;;;5012195;28;20179;-75
2022/07/19 02:17:35;;;;;;;103.40;98.03;;;16.20;99.90;;;;;;5012543;28;20174;-75
2022/07/19 02:20:01;;;;;;;83.77;79.50;;;16.10;99.90;;;;;;5013524;28;20191;-75
2022/07/19 02:22:27;;;;;;;77.10;72.83;;;16.20;99.90;;;;;;5013276;28;20230;-75
2022/07/19 02:24:53;;;;;;;75.43;71.60;;;16.10;99.90;;;;;;5014041;28;20584;-74
2022/07/19 02:27:19;;;;;;;76.77;72.90;;;16.10;99.90;;;;;;5010356;28;20188;-74
2022/07/19 02:29:45;;;;;;;73.37;69.17;;;16.00;99.90;;;;;;5011087;28;20620;-75
2022/07/19 02:32:11;;;;;;;67.67;64.00;;;16.00;99.90;;;;;;5010920;28;20273;-75
2022/07/19 02:34:37;;;;;;;68.97;65.47;;;16.00;99.90;;;;;;5013279;28;20237;-75
2022/07/19 02:37:03;;;;;;;85.27;81.00;;;15.80;99.90;;;;;;5010186;28;20184;-75
2022/07/19 02:39:29;;;;;;;64.70;60.80;;;15.70;99.90;;;;;;5011063;28;20533;-74
2022/07/19 02:41:55;;;;;;;56.17;53.13;;;15.80;99.90;;;;;;4993505;28;20237;-75
2022/07/19 02:44:21;;;;;;;36.63;34.67;;;15.80;99.90;;;;;;5010791;28;20223;-74
2022/07/19 02:46:47;;;;;;;36.20;34.20;;;15.80;99.90;;;;;;5027135;28;20183;-74
2022/07/19 02:49:13;;;;;;;35.90;33.90;;;15.80;99.90;;;;;;5030569;28;20191;-75
2022/07/19 02:51:39;;;;;;;60.70;57.30;;;16.00;99.90;;;;;;5012910;28;20729;-74
2022/07/19 02:54:04;;;;;;;36.63;34.27;;;15.80;99.90;;;;;;5030522;28;20210;-75
2022/07/19 02:56:30;;;;;;;34.47;32.43;;;15.80;99.90;;;;;;5030744;28;20266;-75
2022/07/19 02:58:56;;;;;;;43.57;41.33;;;15.70;99.90;;;;;;5029182;28;20186;-74
2022/07/19 03:01:22;;;;;;;37.30;35.07;;;15.80;99.90;;;;;;5010918;28;20183;-75
2022/07/19 03:03:47;;;;;;;48.93;46.30;;;15.80;99.90;;;;;;5010783;28;20207;-75
2022/07/19 03:06:17;;;;;;;51.33;48.73;;;15.70;99.90;;;;;;5010656;28;20188;-74
2022/07/19 03:08:44;;;;;;;45.87;43.33;;;15.60;99.90;;;;;;5021492;28;20187;-75
2022/07/19 03:11:10;;;;;;;55.90;52.83;;;15.50;99.90;;;;;;5017453;28;20287;-75
2022/07/19 03:13:36;;;;;;;53.70;50.90;;;15.50;99.90;;;;;;5018039;28;20223;-74
2022/07/19 03:16:02;;;;;;;54.23;51.33;;;15.50;99.90;;;;;;5022629;28;20179;-74
2022/07/19 03:18:28;;;;;;;50.90;48.13;;;15.50;99.90;;;;;;5011614;28;20187;-75
2022/07/19 03:20:55;;;;;;;60.50;57.40;;;15.40;99.90;;;;;;5014177;28;20633;-75
2022/07/19 03:23:21;;;;;;;62.70;59.43;;;15.40;99.90;;;;;;5011316;28;20208;-75
2022/07/19 03:25:47;;;;;;;63.57;60.13;;;15.40;99.90;;;;;;5026173;28;20236;-75
2022/07/19 03:28:13;;;;;;;72.20;68.53;;;15.40;99.90;;;;;;5019778;28;20191;-75
2022/07/19 03:30:38;;;;;;;63.63;60.30;;;15.20;99.90;;;;;;5030012;28;20215;-75
2022/07/19 03:33:04;;;;;;;61.97;58.67;;;15.30;99.90;;;;;;5007620;28;20751;-75
2022/07/19 03:35:30;;;;;;;71.90;68.07;;;15.30;99.90;;;;;;5000788;28;20566;-75
2022/07/19 03:37:56;;;;;;;52.13;49.43;;;15.20;99.90;;;;;;5013717;28;20198;-75
2022/07/19 03:40:22;;;;;;;44.90;42.47;;;15.30;99.90;;;;;;5011953;28;20176;-75
2022/07/19 03:42:47;;;;;;;43.53;41.00;;;15.30;99.90;;;;;;5021738;23;21219;-71
2022/07/19 03:45:13;;;;;;;34.87;32.60;;;15.20;99.90;;;;;;5071493;28;20226;-71
2022/07/19 03:47:39;;;;;;;29.00;27.37;;;15.20;99.90;;;;;;5071657;28;20273;-71
2022/07/19 03:50:05;;;;;;;27.70;25.27;;;15.10;99.90;;;;;;5071391;28;20178;-72
2022/07/19 03:52:31;;;;;;;22.93;21.57;;;15.10;99.90;;;;;;5073230;28;20224;-70
2022/07/19 03:54:57;;;;;;;22.53;21.10;;;15.10;99.90;;;;;;5072906;28;20178;-70
2022/07/19 03:57:23;;;;;;;19.27;18.10;;;15.20;99.90;;;;;;5072403;28;20262;-71
2022/07/19 03:59:49;;;;;;;22.20;20.77;;;15.20;99.90;;;;;;5073347;28;20257;-70
2022/07/19 04:02:14;;;;;;;32.60;30.53;;;15.30;99.90;;;;;;5073045;28;20185;-70
2022/07/19 04:04:40;;;;;;;34.10;32.03;;;15.20;99.90;;;;;;5075289;28;20197;-71
2022/07/19 04:07:06;;;;;;;30.70;28.87;;;15.10;99.90;;;;;;5073220;28;20182;-71
2022/07/19 04:09:32;;;;;;;22.73;21.33;;;15.00;99.90;;;;;;5072826;28;20649;-70
2022/07/19 04:11:58;;;;;;;18.87;17.67;;;15.00;99.90;;;;;;5065992;28;20218;-70
2022/07/19 04:14:23;;;;;;;19.20;17.90;;;15.00;99.90;;;;;;5056305;28;20194;-70
2022/07/19 04:16:49;;;;;;;20.50;18.87;;;15.10;99.90;;;;;;5050328;28;20721;-70
2022/07/19 04:19:15;;;;;;;27.83;25.47;;;15.20;99.90;;;;;;5065934;28;20204;-70
2022/07/19 04:21:41;;;;;;;20.77;19.33;;;15.30;99.90;;;;;;5071104;28;20192;-71
2022/07/19 04:24:07;;;;;;;22.23;20.77;;;15.30;99.90;;;;;;5071096;28;20208;-70
2022/07/19 04:26:32;;;;;;;21.97;20.53;;;15.40;99.90;;;;;;5071848;28;20182;-70
2022/07/19 04:28:58;;;;;;;23.33;21.73;;;15.40;99.90;;;;;;5071630;28;20178;-70
2022/07/19 04:31:24;;;;;;;20.97;19.57;;;15.50;99.90;;;;;;5072274;28;20201;-70
2022/07/19 04:33:50;;;;;;;34.57;32.40;;;15.60;99.90;;;;;;5070225;28;20193;-69
2022/07/19 04:36:16;;;;;;;77.17;72.97;;;15.70;99.90;;;;;;5071384;28;20227;-71
2022/07/19 04:38:42;;;;;;;77.63;73.40;;;15.80;99.90;;;;;;5070648;28;20779;-71
2022/07/19 04:41:08;;;;;;;55.63;52.27;;;15.80;99.90;;;;;;5071816;28;20272;-70
2022/07/19 04:43:33;;;;;;;71.43;67.73;;;15.90;99.90;;;;;;5071591;28;20717;-71
2022/07/19 04:45:59;;;;;;;148.07;140.70;;;16.00;99.90;;;;;;5070989;28;20564;-71
2022/07/19 04:48:26;;;;;;;156.13;148.33;;;16.00;99.90;;;;;;5069482;28;20693;-71
2022/07/19 04:50:52;;;;;;;137.97;130.40;;;16.20;99.90;;;;;;5069583;28;20209;-71
2022/07/19 04:53:18;;;;;;;162.50;153.93;;;16.30;99.90;;;;;;5071606;28;20687;-71
2022/07/19 04:55:44;;;;;;;183.57;173.67;;;16.40;99.90;;;;;;5072355;28;20178;-71
2022/07/19 04:58:09;;;;;;;159.73;151.47;;;16.60;99.90;;;;;;5071700;28;20174;-71
2022/07/19 05:00:35;;;;;;;87.50;82.43;;;16.70;99.90;;;;;;5072336;28;20307;-71
2022/07/19 05:03:01;;;;;;;27.47;25.37;;;16.90;99.90;;;;;;5071580;28;20545;-71
2022/07/19 05:05:27;;;;;;;22.83;21.03;;;17.00;99.90;;;;;;5071505;28;20182;-71
2022/07/19 05:07:53;;;;;;;40.87;38.27;;;17.10;99.90;;;;;;5070821;28;20205;-71
2022/07/19 05:10:19;;;;;;;16.17;14.90;;;17.30;99.90;;;;;;5071650;28;20182;-70
2022/07/19 05:12:44;;;;;;;12.80;11.80;;;17.70;99.90;;;;;;5070516;28;20857;-71
2022/07/19 05:15:10;;;;;;;13.35;12.20;;;18.00;99.90;;;;;;5071750;28;20240;-71
2022/07/19 05:17:36;;;;;;;104.65;99.15;;;18.50;99.90;;;;;;5070868;28;20208;-72
2022/07/19 05:20:04;;;;;;;179.68;170.43;;;19.10;99.90;;;;;;5071232;28;20194;-71
2022/07/19 05:22:29;;;;;;;61.28;58.13;;;19.80;99.90;;;;;;5072160;28;20193;-75
2022/07/19 05:24:58;;;;;;;21.60;20.02;;;20.50;99.90;;;;;;5070457;28;20186;-76
2022/07/19 05:27:24;;;;;;;12.25;11.25;;;21.20;99.90;;;;;;5071458;28;20188;-76
2022/07/19 05:29:50;;;;;;;8.32;7.60;;;21.70;99.90;;;;;;5065109;28;20678;-76
2022/07/19 05:32:16;;;;;;;7.72;7.07;;;22.30;99.90;;;;;;5060772;28;20225;-75
2022/07/19 05:34:42;;;;;;;7.50;6.78;;;22.80;99.90;;;;;;5070155;28;20213;-76
2022/07/19 05:37:08;;;;;;;7.45;6.50;;;23.20;99.90;;;;;;5070319;28;20546;-75
2022/07/19 05:39:34;;;;;;;21.95;20.45;;;23.60;99.90;;;;;;5070336;28;20186;-75
2022/07/19 05:41:59;;;;;;;17.35;16.48;;;23.90;99.90;;;;;;5071422;28;20243;-75
2022/07/19 05:44:25;;;;;;;15.02;14.15;;;24.20;99.90;;;;;;5071207;28;20760;-75
2022/07/19 05:46:51;;;;;;;7.90;6.88;;;24.70;99.70;;;;;;5069354;28;20181;-75
2022/07/19 05:49:17;;;;;;;10.93;10.23;;;25.10;99.00;;;;;;5071174;28;20185;-75
2022/07/19 05:51:43;;;;;;;10.48;9.38;;;25.30;97.00;;;;;;5071122;28;20572;-75
2022/07/19 05:54:09;;;;;;;13.65;12.85;;;25.70;96.70;;;;;;5070946;28;20204;-75
2022/07/19 05:56:35;;;;;;;14.25;12.85;;;26.00;95.60;;;;;;5071226;28;20658;-73
2022/07/19 05:59:03;;;;;;;12.55;11.73;;;26.20;95.20;;;;;;5069795;28;20239;-75
2022/07/19 06:01:30;;;;;;;8.27;7.57;;;26.30;93.90;;;;;;5070983;28;20187;-75
2022/07/19 06:03:58;;;;;;;9.00;8.30;;;26.70;93.00;;;;;;5070949;28;20732;-75
2022/07/19 06:06:26;;;;;;;9.23;8.45;;;27.20;91.60;;;;;;5071556;28;20177;-77
2022/07/19 06:08:52;;;;;;;10.52;9.77;;;27.30;90.80;;;;;;5068944;28;20196;-76
2022/07/19 06:11:19;;;;;;;8.98;8.43;;;27.40;90.30;;;;;;5070798;28;20201;-76
2022/07/19 06:13:46;;;;;;;8.43;7.88;;;27.70;89.00;;;;;;5070845;28;20193;-76
2022/07/19 06:16:12;;;;;;;9.02;8.15;;;27.90;88.60;;;;;;5070846;28;20177;-76
2022/07/19 06:18:38;;;;;;;8.82;5.75;;;28.20;87.70;;;;;;5070112;28;20186;-76
2022/07/19 06:21:08;;;;;;;6.35;5.95;;;28.40;84.30;;;;;;5070816;28;20178;-74
2022/07/19 06:23:35;;;;;;;7.57;6.05;;;28.50;82.80;;;;;;5070693;28;20206;-77
2022/07/19 06:26:01;;;;;;;7.78;6.70;;;28.60;83.60;;;;;;5071279;28;20181;-74
2022/07/19 06:28:27;;;;;;;7.40;6.90;;;28.70;83.10;;;;;;5070034;28;20208;-74
2022/07/19 06:30:53;;;;;;;8.48;7.38;;;29.00;82.50;;;;;;5070822;28;20538;-74
2022/07/19 06:33:19;;;;;;;7.57;7.18;;;28.90;78.70;;;;;;5070538;28;20220;-75
2022/07/19 06:35:45;;;;;;;7.55;6.82;;;29.00;81.40;;;;;;5070646;28;20170;-75
2022/07/19 06:38:12;;;;;;;11.10;8.00;;;29.20;79.80;;;;;;5069763;28;20184;-75
2022/07/19 06:40:37;;;;;;;10.18;9.30;;;29.60;77.30;;;;;;5070679;28;20787;-74
2022/07/19 06:43:03;;;;;;;15.10;14.18;;;29.80;77.30;;;;;;5070218;28;20256;-74
2022/07/19 06:45:29;;;;;;;20.63;19.52;;;30.10;75.40;;;;;;5070553;28;20189;-75
2022/07/19 06:47:55;;;;;;;26.48;24.92;;;30.10;73.10;;;;;;5069724;28;20549;-75
2022/07/19 06:50:21;;;;;;;42.22;40.15;;;30.10;75.20;;;;;;5069335;28;20204;-75
2022/07/19 06:52:47;;;;;;;45.90;43.28;;;30.40;74.40;;;;;;5070604;28;20275;-75
2022/07/19 06:55:13;;;;;;;43.50;41.13;;;30.80;73.30;;;;;;5070419;28;20188;-75
2022/07/19 06:57:40;;;;;;;74.75;71.13;;;31.20;72.70;;;;;;5069735;28;20185;-75
2022/07/19 07:00:08;;;;;;;83.78;79.68;;;31.40;69.60;;;;;;5070429;28;20646;-75
2022/07/19 07:02:35;;;;;;;86.55;82.35;;;31.30;70.40;;;;;;5070385;28;20192;-75
2022/07/19 07:05:01;;;;;;;106.60;101.20;;;31.30;68.80;;;;;;5070664;28;20534;-76
2022/07/19 07:07:27;;;;;;;120.65;114.72;;;31.50;69.40;;;;;;5071359;28;20184;-74
2022/07/19 07:09:52;;;;;;;114.88;109.30;;;31.70;69.60;;;;;;5071553;28;20184;-74
2022/07/19 07:12:18;;;;;;;156.70;149.02;;;32.00;68.50;;;;;;5075695;28;20634;-73
2022/07/19 07:14:44;;;;;;;116.68;111.10;;;32.10;68.30;;;;;;5077852;28;20227;-75
2022/07/19 07:17:10;;;;;;;190.05;180.85;;;32.10;68.00;;;;;;5072378;28;20186;-75
2022/07/19 07:19:36;;;;;;;184.05;175.07;;;32.20;67.30;;;;;;5072842;28;20174;-75
2022/07/19 07:22:02;;;;;;;194.27;183.98;;;32.40;66.80;;;;;;5072871;28;20182;-75
2022/07/19 07:24:28;;;;;;;197.95;188.23;;;32.40;67.70;;;;;;5072637;28;20197;-75
2022/07/19 07:26:54;;;;;;;242.60;230.43;;;32.60;68.30;;;;;;5073164;28;20181;-75
2022/07/19 07:29:20;;;;;;;330.73;313.80;;;33.00;66.10;;;;;;5072939;28;20281;-75
2022/07/19 07:31:46;;;;;;;250.40;238.00;;;33.50;60.40;;;;;;5074352;28;20685;-75
2022/07/19 07:34:12;;;;;;;269.92;256.55;;;33.30;57.80;;;;;;5073758;28;20242;-75
2022/07/19 07:36:37;;;;;;;285.27;270.75;;;33.10;58.20;;;;;;5073756;28;20181;-75
2022/07/19 07:39:04;;;;;;;150.55;143.20;;;33.30;58.40;;;;;;5073000;28;20176;-75
2022/07/19 07:41:29;;;;;;;116.72;111.03;;;33.40;56.20;;;;;;5073725;28;20185;-75
2022/07/19 07:43:55;;;;;;;95.93;90.97;;;33.40;55.70;;;;;;5073472;28;20230;-74
2022/07/19 07:46:21;;;;;;;123.95;117.93;;;33.40;55.40;;;;;;5073605;28;20189;-75
2022/07/19 07:48:47;;;;;;;95.55;90.82;;;33.60;55.50;;;;;;5072806;28;20173;-75
2022/07/19 07:51:12;;;;;;;222.10;211.35;;;34.20;54.40;;;;;;5073405;28;20206;-74
2022/07/19 07:53:38;;;;;;;235.10;223.60;;;34.20;51.50;;;;;;5072113;28;20268;-74
2022/07/19 07:56:04;;;;;;;192.40;183.20;;;33.50;51.40;;;;;;5073495;28;20212;-74
2022/07/19 07:58:30;;;;;;;128.23;122.15;;;33.10;51.50;;;;;;5072451;28;20194;-74
2022/07/19 08:00:56;;;;;;;98.78;93.95;;;32.60;52.40;;;;;;5073449;28;20266;-74
2022/07/19 08:03:22;;;;;;;133.57;127.13;;;32.60;53.20;;;;;;5073236;28;20674;-74
2022/07/19 08:05:48;;;;;;;110.60;105.32;;;32.70;54.80;;;;;;5073108;28;20193;-74
2022/07/19 08:08:15;;;;;;;116.78;111.10;;;33.00;53.30;;;;;;5072216;28;20205;-74
2022/07/19 08:10:41;;;;;;;140.52;133.73;;;33.40;53.20;;;;;;5071925;28;20205;-75
2022/07/19 08:13:07;;;;;;;159.32;151.45;;;33.50;50.60;;;;;;5073235;28;20201;-76
2022/07/19 08:15:35;;;;;;;150.23;143.05;;;33.40;50.50;;;;;;5073011;28;20199;-75
2022/07/19 08:18:00;;;;;;;176.13;167.82;;;33.40;50.40;;;;;;5071138;28;20178;-74
2022/07/19 08:20:26;;;;;;;251.70;239.13;;;33.60;49.30;;;;;;5071854;28;20201;-75
2022/07/19 08:22:52;;;;;;;160.13;152.15;;;33.30;49.00;;;;;;5072071;28;20247;-75
2022/07/19 08:25:18;;;;;;;263.15;250.30;;;33.40;50.80;;;;;;5072925;28;20239;-74
2022/07/19 08:27:44;;;;;;;256.55;243.80;;;33.60;48.40;;;;;;5072123;28;20616;-75
2022/07/19 08:30:11;;;;;;;289.08;274.55;;;33.50;48.30;;;;;;5071839;28;20180;-74
2022/07/19 08:32:38;;;;;;;194.85;185.48;;;33.10;48.20;;;;;;5072728;28;20201;-75
2022/07/19 08:35:05;;;;;;;301.00;285.67;;;33.40;49.10;;;;;;5073005;28;20227;-76
2022/07/19 08:37:31;;;;;;;269.48;255.70;;;33.80;47.40;;;;;;5072112;28;20170;-76
2022/07/19 08:39:57;;;;;;;340.95;323.30;;;34.10;47.10;;;;;;5073312;28;20177;-74
2022/07/19 08:42:24;;;;;;;153.77;146.55;;;34.30;45.40;;;;;;5072408;28;20612;-74
2022/07/19 08:44:52;;;;;;;157.70;150.18;;;34.20;43.60;;;;;;5072313;28;20197;-74
2022/07/19 08:47:21;;;;;;;165.32;157.18;;;34.10;43.80;;;;;;5071579;28;20181;-74
2022/07/19 08:49:48;;;;;;;103.25;98.25;;;33.80;43.40;;;;;;5072274;28;20661;-75
2022/07/19 08:52:16;;;;;;;156.20;148.30;;;33.50;42.40;;;;;;5072459;28;20700;-73
2022/07/19 08:54:42;;;;;;;93.28;88.28;;;33.50;42.50;;;;;;5072200;28;20201;-75
2022/07/19 08:59:52;;;;;;;145.57;138.43;;;33.30;42.30;;;;;;5072074;28;20181;-73
2022/07/19 09:02:17;;;;;;;134.85;128.10;;;33.50;42.00;;;;;;5072019;28;20641;-74
2022/07/19 09:04:58;;;;;;;96.28;91.57;;;33.80;41.90;;;;;;5072416;28;20247;-74
2022/07/19 09:07:23;;;;;;;110.85;105.47;;;34.00;41.10;;;;;;5071245;28;20196;-72
2022/07/19 09:09:49;;;;;;;124.18;118.00;;;34.00;41.70;;;;;;5070665;28;20186;-72
2022/07/19 09:12:15;;;;;;;139.35;132.07;;;33.70;41.50;;;;;;5071690;28;20677;-73
2022/07/19 09:14:41;;;;;;;122.40;116.43;;;34.00;41.10;;;;;;5071896;28;20240;-74
2022/07/19 09:17:16;;;;;;;61.83;58.50;;;34.50;41.10;;;;;;5071302;28;20182;-74
2022/07/19 09:19:44;;;;;;;97.65;92.75;;;34.60;40.20;;;;;;5071676;28;20183;-74
2022/07/19 09:22:19;;;;;;;29.65;28.20;;;34.50;40.90;;;;;;5071653;28;20178;-74
2022/07/19 09:24:49;;;;;;;54.47;51.80;;;34.50;39.80;;;;;;5071542;28;20232;-75
2022/07/19 09:27:18;;;;;;;52.13;49.15;;;34.50;40.10;;;;;;5071709;28;20296;-75
2022/07/19 09:29:47;;;;;;;43.25;41.10;;;34.60;39.90;;;;;;5072077;28;20547;-74
2022/07/19 09:32:17;;;;;;;30.23;28.52;;;34.70;39.80;;;;;;5071463;28;20300;-75
2022/07/19 09:34:49;;;;;;;51.97;49.28;;;34.70;39.80;;;;;;5070317;28;20197;-74
2022/07/19 09:37:18;;;;;;;37.72;35.90;;;34.70;40.10;;;;;;5070712;28;20201;-74
2022/07/19 09:39:47;;;;;;;29.05;27.55;;;34.80;39.70;;;;;;5071344;28;20173;-75
2022/07/19 09:42:19;;;;;;;24.20;22.90;;;34.60;39.40;;;;;;5071328;28;20190;-75
2022/07/19 09:44:55;;;;;;;28.60;27.02;;;34.60;39.90;;;;;;5071759;22;20253;-74
2022/07/19 09:47:31;;;;;;;51.83;49.17;;;34.70;39.60;;;;;;5050436;28;20654;-76
2022/07/19 09:49:57;;;;;;;19.20;18.10;;;35.00;39.40;;;;;;5051223;28;20269;-75
2022/07/19 09:52:24;;;;;;;18.17;17.30;;;35.40;39.40;;;;;;5051064;28;20377;-73
2022/07/19 09:54:51;;;;;;;18.08;16.73;;;35.20;39.10;;;;;;5051402;28;20240;-75
2022/07/19 09:57:23;;;;;;;9.48;8.70;;;35.50;39.10;;;;;;5050264;28;20175;-74
2022/07/19 09:59:51;;;;;;;7.38;6.80;;;35.70;38.50;;;;;;5051410;28;20274;-76
2022/07/19 10:02:21;;;;;;;5.15;4.72;;;35.80;38.60;;;;;;5049791;28;20186;-76
2022/07/19 10:04:47;;;;;;;4.50;4.20;;;35.70;38.60;;;;;;5051115;28;20248;-76
2022/07/19 10:07:16;;;;;;;6.15;4.82;;;35.50;38.00;;;;;;5050210;28;20178;-74
2022/07/19 10:09:44;;;;;;;5.20;4.90;;;35.40;38.70;;;;;;5050944;28;20243;-75
2022/07/19 10:12:11;;;;;;;5.80;5.50;;;35.60;38.20;;;;;;5050834;28;20209;-75
2022/07/19 10:14:38;;;;;;;6.35;5.95;;;35.80;38.80;;;;;;5050880;28;20821;-76
2022/07/19 10:17:37;;;;;;;5.05;4.72;;;35.90;39.20;;;;;;5050195;28;20236;-76
2022/07/19 10:20:05;;;;;;;6.55;5.97;;;35.90;38.00;;;;;;5050866;28;20639;-75
2022/07/19 10:22:31;;;;;;;6.00;5.50;;;36.00;37.70;;;;;;5051016;28;20182;-75
2022/07/19 10:25:04;;;;;;;7.15;5.78;;;36.10;37.90;;;;;;5050990;28;20206;-75
2022/07/19 10:27:33;;;;;;;7.40;6.88;;;36.50;37.60;;;;;;5048811;28;20674;-74
2022/07/19 10:30:15;;;;;;;12.02;11.38;;;37.10;36.90;;;;;;5050653;28;20186;-74
2022/07/19 10:32:43;;;;;;;13.00;12.13;;;37.40;36.30;;;;;;5055704;28;20240;-75
2022/07/19 10:35:27;;;;;;;14.20;13.40;;;37.40;36.60;;;;;;5061956;28;20178;-75
2022/07/19 10:37:54;;;;;;;14.20;13.50;;;36.90;35.20;;;;;;5063215;28;20175;-75
2022/07/19 10:40:44;;;;;;;17.05;16.08;;;37.00;34.50;;;;;;5066479;28;20185;-76
2022/07/19 10:43:20;;;;;;;13.80;12.95;;;36.90;35.60;;;;;;5051058;28;20304;-74
2022/07/19 10:46:04;;;;;;;18.50;17.38;;;37.50;35.30;;;;;;5051310;28;20213;-75
2022/07/19 10:48:47;;;;;;;18.10;17.10;;;37.70;34.70;;;;;;5052874;28;20185;-76
2022/07/19 10:51:28;;;;;;;15.32;14.52;;;37.80;34.50;;;;;;5053703;28;20605;-73
2022/07/19 10:54:06;;;;;;;16.88;16.08;;;38.30;33.90;;;;;;5053534;28;20607;-76
2022/07/19 10:56:37;;;;;;;15.15;14.27;;;37.40;34.70;;;;;;5054561;28;20184;-74
2022/07/19 10:59:13;;;;;;;11.35;10.60;;;37.50;34.20;;;;;;5053742;28;20178;-75
2022/07/19 11:01:55;;;;;;;13.88;12.90;;;38.00;34.30;;;;;;5054324;28;20197;-73
2022/07/19 11:04:30;;;;;;;6.85;6.43;;;38.40;35.20;;;;;;5053211;28;20233;-74
2022/07/19 11:07:20;;;;;;;8.27;7.78;;;38.70;32.80;;;;;;5053712;28;20236;-75
2022/07/19 11:09:57;;;;;;;6.75;6.07;;;38.40;33.80;;;;;;5054086;28;20240;-75
2022/07/19 11:12:35;;;;;;;5.75;5.30;;;38.10;33.20;;;;;;5054255;28;20321;-74
2022/07/19 11:15:05;;;;;;;7.28;6.75;;;38.00;33.50;;;;;;5054236;28;20812;-74
2022/07/19 11:17:31;;;;;;;8.88;8.05;;;37.80;33.70;;;;;;5053559;28;20178;-76
2022/07/19 11:19:59;;;;;;;11.07;10.38;;;37.70;33.90;;;;;;5054554;28;20635;-76
2022/07/19 11:22:25;;;;;;;10.60;9.68;;;37.60;34.10;;;;;;5054523;28;20190;-76
2022/07/19 11:24:50;;;;;;;8.15;7.65;;;37.50;34.40;;;;;;5054134;28;20244;-76
2022/07/19 11:27:16;;;;;;;12.18;11.13;;;37.50;33.60;;;;;;5053398;28;20256;-76
2022/07/19 11:30:04;;;;;;;7.00;6.60;;;37.50;34.60;;;;;;5054425;28;20183;-75
2022/07/19 11:32:30;;;;;;;6.38;5.85;;;38.00;33.70;;;;;;5053988;28;20296;-75
2022/07/19 11:35:01;;;;;;;7.88;5.45;;;38.40;32.90;;;;;;5052673;28;20618;-75
2022/07/19 11:37:29;;;;;;;4.78;4.43;;;38.50;33.00;;;;;;5053201;28;20230;-73
2022/07/19 11:39:57;;;;;;;5.00;4.60;;;38.60;32.70;;;;;;5052702;28;20190;-73
2022/07/19 11:42:35;;;;;;;4.93;4.53;;;39.20;32.20;;;;;;5053875;28;20221;-74
2022/07/19 11:45:15;;;;;;;11.75;4.97;;;38.70;32.50;;;;;;5053679;28;20221;-74
2022/07/19 11:47:42;;;;;;;6.13;4.63;;;38.50;32.80;;;;;;5053090;28;20178;-74
2022/07/19 11:50:10;;;;;;;6.70;6.22;;;38.20;33.00;;;;;;5070141;28;20166;-73
2022/07/19 11:52:42;;;;;;;5.60;5.10;;;38.30;33.70;;;;;;5059544;28;20216;-75
2022/07/19 11:55:08;;;;;;;4.88;4.47;;;38.80;33.60;;;;;;5054196;28;20572;-74
2022/07/19 11:57:34;;;;;;;7.38;4.32;;;38.70;32.30;;;;;;5051941;28;20181;-75
2022/07/19 12:00:00;;;;;;;4.95;4.57;;;38.50;32.80;;;;;;5066584;28;20175;-75
2022/07/19 12:02:25;;;;;;;4.43;4.13;;;38.30;32.90;;;;;;5058612;28;20706;-73
2022/07/19 12:04:51;;;;;;;4.38;4.07;;;38.40;32.90;;;;;;5053641;28;20203;-73
2022/07/19 12:07:18;;;;;;;5.15;4.70;;;39.00;32.40;;;;;;5052772;28;20673;-75
2022/07/19 12:09:44;;;;;;;3.95;3.60;;;39.80;31.70;;;;;;5053006;28;20205;-76
2022/07/19 12:12:16;;;;;;;6.90;4.00;;;40.00;31.00;;;;;;5051693;28;20683;-74
2022/07/19 12:14:42;;;;;;;7.38;4.65;;;39.40;32.20;;;;;;5053142;28;20198;-74
2022/07/19 12:17:21;;;;;;;4.35;3.92;;;39.60;32.50;;;;;;5051421;28;20182;-74
2022/07/19 12:20:06;;;;;;;4.28;3.88;;;39.40;33.10;;;;;;5051710;28;20560;-74
2022/07/19 12:22:37;;;;;;;5.43;3.78;;;39.80;32.20;;;;;;5052046;28;20186;-74
2022/07/19 12:25:05;;;;;;;4.78;4.07;;;39.80;32.50;;;;;;5054047;28;20202;-74
2022/07/19 12:27:32;;;;;;;4.28;3.85;;;39.80;33.10;;;;;;5052496;28;20186;-73
2022/07/19 12:29:59;;;;;;;3.70;3.38;;;40.10;31.10;;;;;;5051757;28;20895;-74
2022/07/19 12:32:29;;;;;;;5.40;3.78;;;39.90;32.00;;;;;;5053553;28;20237;-74
2022/07/19 12:34:58;;;;;;;9.50;3.92;;;40.10;31.80;;;;;;5052621;28;20226;-74
2022/07/19 12:37:32;;;;;;;6.85;4.22;;;40.30;30.90;;;;;;5051818;28;20271;-74
2022/07/19 12:40:05;;;;;;;6.28;4.72;;;40.90;30.90;;;;;;5051451;28;20178;-75
2022/07/19 12:42:47;;;;;;;4.60;4.18;;;40.70;30.80;;;;;;5052599;28;20193;-73
2022/07/19 12:45:21;;;;;;;6.32;4.97;;;40.60;30.50;;;;;;5052508;28;20194;-75